KSNK

Winston Field Airport

Snyder, Texas, USA
METAR KSNK 210415Z AUTO 17006KT 10SM CLR 11/M02 A2986 RMK AO2 T01131016
Observed Flight Rules
Jan-21 @ 04:15 UTC (19 minutes ago) Visual Flight Rules
Wind Visibility Clouds
170° at 6 knots 10 miles
  • Clear skies
Temperatures Readings
Current 11°C / 52°F
Dewpoint -2°C / 28°F
Humidity 41%
Altimeter 29.86" Hg
Pressure 1011 hPa
Elevation 741
METAR KSNK 210415Z AUTO 17006KT 10SM CLR 11/M02 A2986 RMK AO2 T01131016
Observed Flight Rules
Jan-21 @ 04:15 UTC
(19 minutes ago)
VFR
Wind Visibility
170° at 6 knots 10 miles
Clouds
  • Clear skies
Temperature Dewpoint
11°C / 52°F -2°C / 28°F
Humidity Altimeter Pressure
41% 29.86" Hg 1011 hPa